Time;durP1;ratioP1;P1;durP2;ratioP2;P2;SDS_P1;SDS_P2;PMS_P1;PMS_P2;Temp;Humidity;BMP_temperature;BMP_pressure;BME280_temperature;BME280_humidity;BME280_pressure;Samples;Min_cycle;Max_cycle;Signal;HPM_P1;HPM_P2
2024/04/19 00:01:24;;;;;;;4.00;3.43;;;11.40;92.80;;;;;;5416935;26;20566;-60
2024/04/19 00:03:50;;;;;;;6.27;3.90;;;11.30;93.00;;;;;;5385297;26;20440;-60
2024/04/19 00:06:16;;;;;;;4.20;3.80;;;11.30;92.70;;;;;;5416444;26;20260;-60
2024/04/19 00:08:42;;;;;;;4.17;3.80;;;11.40;92.70;;;;;;5416613;26;20455;-60
2024/04/19 00:11:08;;;;;;;3.53;3.20;;;11.30;93.10;;;;;;5416736;26;20452;-60
2024/04/19 00:13:34;;;;;;;3.60;3.40;;;11.30;92.70;;;;;;5416617;26;20544;-61
2024/04/19 00:15:59;;;;;;;3.83;3.50;;;11.30;92.40;;;;;;5416283;26;20629;-61
2024/04/19 00:18:26;;;;;;;3.97;3.17;;;11.40;93.30;;;;;;5427679;26;20588;-60
2024/04/19 00:20:56;;;;;;;3.87;3.57;;;11.40;92.90;;;;;;5452068;26;20596;-61
2024/04/19 00:23:22;;;;;;;6.27;3.53;;;11.30;92.90;;;;;;5452688;26;20449;-60
2024/04/19 00:25:49;;;;;;;3.60;3.30;;;11.30;93.70;;;;;;5451412;26;20557;-60
2024/04/19 00:28:15;;;;;;;4.40;3.47;;;11.30;93.10;;;;;;5452510;26;20978;-60
2024/04/19 00:30:41;;;;;;;3.40;3.10;;;11.30;92.70;;;;;;5452292;26;20444;-60
2024/04/19 00:33:07;;;;;;;3.17;3.03;;;11.30;92.40;;;;;;5451432;26;20503;-60
2024/04/19 00:35:33;;;;;;;6.80;3.73;;;11.30;92.70;;;;;;5451872;26;20446;-60
2024/04/19 00:37:59;;;;;;;4.30;4.00;;;11.30;93.80;;;;;;5451824;26;20242;-60
2024/04/19 00:40:25;;;;;;;4.03;3.63;;;11.30;93.70;;;;;;5451942;26;20453;-60
2024/04/19 00:42:52;;;;;;;6.13;5.83;;;11.30;93.50;;;;;;5451145;26;20574;-61
2024/04/19 00:45:35;;;;;;;3.57;3.27;;;11.40;93.70;;;;;;5452204;26;20273;-60
2024/04/19 00:48:17;;;;;;;5.63;3.27;;;11.30;94.00;;;;;;5451567;26;20467;-60
2024/04/19 00:50:50;;;;;;;5.20;4.80;;;11.10;94.30;;;;;;5452029;26;20448;-60
2024/04/19 00:53:21;;;;;;;3.70;3.17;;;11.00;96.70;;;;;;5452517;26;20915;-61
2024/04/19 00:55:49;;;;;;;6.10;5.60;;;10.90;96.10;;;;;;5451981;26;20448;-61
2024/04/19 00:58:17;;;;;;;6.27;3.40;;;10.80;96.70;;;;;;5451758;26;20796;-60
2024/04/19 01:00:44;;;;;;;4.37;4.07;;;10.70;96.90;;;;;;5451854;26;20519;-60
2024/04/19 01:03:12;;;;;;;4.87;4.53;;;10.80;99.10;;;;;;5451148;26;20512;-60
2024/04/19 01:05:38;;;;;;;3.23;3.03;;;10.80;98.10;;;;;;5451639;26;20614;-60
2024/04/19 01:08:05;;;;;;;5.40;4.70;;;10.80;98.30;;;;;;5450842;26;20452;-61
2024/04/19 01:10:32;;;;;;;4.27;3.47;;;10.60;99.60;;;;;;5416231;26;20559;-60
2024/04/19 01:12:58;;;;;;;4.17;3.53;;;10.60;99.90;;;;;;5449726;26;20492;-60
2024/04/19 01:15:24;;;;;;;4.70;3.63;;;10.60;99.90;;;;;;5419738;26;20495;-60
2024/04/19 01:17:50;;;;;;;3.57;3.27;;;10.70;99.90;;;;;;5416427;26;20779;-60
2024/04/19 01:20:16;;;;;;;5.73;3.87;;;10.70;99.90;;;;;;5415715;26;20506;-60
2024/04/19 01:22:44;;;;;;;4.43;3.47;;;10.60;99.90;;;;;;5416367;26;20494;-60
2024/04/19 01:25:16;;;;;;;5.70;3.60;;;10.60;99.90;;;;;;5383739;26;20570;-60
2024/04/19 01:27:41;;;;;;;6.03;4.10;;;10.60;99.90;;;;;;5415539;26;20448;-60
2024/04/19 01:30:08;;;;;;;4.37;4.00;;;10.60;99.90;;;;;;5414656;26;20575;-60
2024/04/19 01:32:34;;;;;;;6.70;6.20;;;10.60;99.90;;;;;;5384160;26;20254;-60
2024/04/19 01:34:59;;;;;;;4.40;3.90;;;10.60;99.90;;;;;;5414544;26;20437;-60
2024/04/19 01:37:25;;;;;;;6.93;6.27;;;10.60;99.90;;;;;;5415918;26;20231;-60
2024/04/19 01:39:51;;;;;;;3.73;3.43;;;10.70;99.90;;;;;;5418433;26;20227;-61
2024/04/19 01:42:17;;;;;;;6.83;4.80;;;10.50;99.90;;;;;;5419180;26;20231;-60
2024/04/19 01:44:42;;;;;;;7.13;6.53;;;10.50;99.90;;;;;;5418723;26;20559;-60
2024/04/19 01:47:08;;;;;;;4.77;4.37;;;10.40;99.90;;;;;;5418094;26;20255;-60
2024/04/19 01:49:34;;;;;;;4.50;3.43;;;10.40;99.90;;;;;;5418841;26;20261;-60
2024/04/19 01:51:59;;;;;;;3.80;3.40;;;10.30;99.90;;;;;;5417979;26;20232;-60
2024/04/19 01:54:25;;;;;;;4.87;3.43;;;10.20;99.90;;;;;;5418914;26;20567;-60
2024/04/19 01:56:53;;;;;;;4.60;4.20;;;10.30;99.90;;;;;;5418168;26;20601;-60
2024/04/19 01:59:18;;;;;;;7.63;7.13;;;10.30;99.90;;;;;;5418526;26;20232;-60
2024/04/19 02:01:44;;;;;;;4.30;3.90;;;10.30;99.90;;;;;;5386964;26;20500;-60
2024/04/19 02:04:10;;;;;;;5.67;5.37;;;10.20;99.90;;;;;;5417875;26;20632;-60
2024/04/19 02:06:37;;;;;;;4.20;3.90;;;10.20;99.90;;;;;;5418488;26;20336;-60
2024/04/19 02:09:03;;;;;;;6.73;6.13;;;10.20;99.90;;;;;;5417909;26;20280;-60
2024/04/19 02:11:29;;;;;;;7.87;7.30;;;10.20;99.90;;;;;;5418644;26;20777;-60
2024/04/19 02:13:55;;;;;;;4.70;4.30;;;10.10;99.90;;;;;;5417726;26;20501;-60
2024/04/19 02:16:21;;;;;;;6.40;5.80;;;10.00;99.90;;;;;;5418718;26;20229;-60
2024/04/19 02:18:46;;;;;;;4.07;3.77;;;10.00;99.90;;;;;;5435068;26;20251;-60
2024/04/19 02:21:12;;;;;;;3.90;3.60;;;10.00;99.90;;;;;;5453770;26;20233;-60
2024/04/19 02:23:38;;;;;;;4.30;4.00;;;10.00;99.90;;;;;;5454359;26;20317;-60
2024/04/19 02:26:04;;;;;;;5.37;4.60;;;10.00;99.90;;;;;;5453566;26;20563;-60
2024/04/19 02:31:16;;;;;;;4.57;4.07;;;10.10;99.90;;;;;;5454124;26;20468;-60
2024/04/19 02:33:44;;;;;;;5.87;5.27;;;10.10;99.90;;;;;;5454488;26;20486;-61
2024/04/19 02:36:10;;;;;;;5.50;5.00;;;10.00;99.90;;;;;;5453625;26;20222;-60
2024/04/19 02:38:37;;;;;;;4.93;4.53;;;9.90;99.90;;;;;;5454242;26;20451;-60
2024/04/19 02:41:03;;;;;;;7.40;6.83;;;10.00;99.90;;;;;;5453588;26;20609;-61
2024/04/19 02:43:29;;;;;;;7.20;6.70;;;9.90;99.90;;;;;;5453973;26;20494;-60
2024/04/19 02:45:54;;;;;;;5.50;5.00;;;9.90;99.90;;;;;;5453373;26;20440;-60
2024/04/19 02:48:20;;;;;;;6.07;5.57;;;10.00;99.90;;;;;;5422331;26;20293;-60
2024/04/19 02:50:49;;;;;;;6.27;5.73;;;10.00;99.90;;;;;;5452943;26;20266;-60
2024/04/19 02:53:16;;;;;;;5.30;4.90;;;10.00;99.90;;;;;;5453181;26;20286;-60
2024/04/19 02:55:42;;;;;;;6.70;6.20;;;9.90;99.90;;;;;;5454024;26;20480;-60
2024/04/19 02:58:07;;;;;;;6.37;5.77;;;9.90;99.90;;;;;;5421601;26;20879;-60
2024/04/19 03:00:33;;;;;;;4.97;4.57;;;9.90;99.90;;;;;;5453857;26;20236;-60
2024/04/19 03:02:59;;;;;;;5.37;4.87;;;9.80;99.90;;;;;;5453124;26;20599;-61
2024/04/19 03:05:25;;;;;;;6.30;5.80;;;9.80;99.90;;;;;;5453980;26;20233;-60
2024/04/19 03:07:50;;;;;;;6.20;5.70;;;9.80;99.90;;;;;;5453708;26;20230;-60
2024/04/19 03:10:16;;;;;;;5.17;4.77;;;9.80;99.90;;;;;;5421558;26;20230;-60
2024/04/19 03:12:42;;;;;;;6.17;5.57;;;9.70;99.90;;;;;;5422048;26;20222;-60
2024/04/19 03:15:08;;;;;;;5.87;5.37;;;9.60;99.90;;;;;;5452999;26;20279;-60
2024/04/19 03:17:33;;;;;;;5.70;5.30;;;9.60;99.90;;;;;;5421926;26;20246;-60
2024/04/19 03:19:59;;;;;;;6.10;5.60;;;9.60;99.90;;;;;;5418329;26;20695;-60
2024/04/19 03:22:25;;;;;;;5.93;5.53;;;9.50;99.90;;;;;;5417606;26;20293;-60
2024/04/19 03:24:50;;;;;;;5.83;5.43;;;9.40;99.90;;;;;;5417988;26;20221;-60
2024/04/19 03:27:16;;;;;;;6.10;5.50;;;9.40;99.90;;;;;;5417026;26;20232;-60
2024/04/19 03:29:42;;;;;;;6.60;6.10;;;9.40;99.90;;;;;;5417552;26;20323;-60
2024/04/19 03:32:08;;;;;;;6.90;6.30;;;9.30;99.90;;;;;;5385218;26;20281;-60
2024/04/19 03:34:33;;;;;;;6.67;6.07;;;9.20;99.90;;;;;;5417391;26;20235;-60
2024/04/19 03:36:59;;;;;;;7.23;6.63;;;9.30;99.90;;;;;;5416853;26;20271;-60
2024/04/19 03:39:25;;;;;;;7.90;7.07;;;9.20;99.90;;;;;;5417726;26;20703;-60
2024/04/19 03:41:51;;;;;;;7.80;7.20;;;9.20;99.90;;;;;;5417232;26;20231;-60
2024/04/19 03:47:02;;;;;;;7.40;6.07;;;9.40;99.90;;;;;;5416616;26;20504;-60
2024/04/19 03:49:27;;;;;;;7.10;6.40;;;9.30;99.90;;;;;;5417159;26;20461;-60
2024/04/19 03:51:56;;;;;;;7.60;6.97;;;9.30;99.90;;;;;;5417008;26;20516;-60
2024/04/19 03:54:21;;;;;;;7.83;7.13;;;9.20;99.90;;;;;;5417353;26;20276;-60
2024/04/19 03:56:47;;;;;;;8.50;7.70;;;9.20;99.90;;;;;;5416927;26;20503;-61
2024/04/19 03:59:13;;;;;;;7.87;7.27;;;9.20;99.90;;;;;;5416585;26;20219;-60
2024/04/19 04:01:39;;;;;;;6.60;6.10;;;9.20;99.90;;;;;;5416082;26;20603;-64
2024/04/19 04:04:04;;;;;;;8.17;7.57;;;9.20;99.90;;;;;;5416282;26;20232;-60
2024/04/19 04:06:30;;;;;;;7.60;6.90;;;9.20;99.90;;;;;;5417116;26;20438;-60
2024/04/19 04:08:56;;;;;;;6.73;6.03;;;9.20;99.90;;;;;;5385300;26;20706;-61
2024/04/19 04:11:22;;;;;;;7.30;6.53;;;9.20;99.90;;;;;;5416682;26;20556;-60
2024/04/19 04:13:48;;;;;;;6.43;5.80;;;9.20;99.90;;;;;;5417086;26;20434;-60
2024/04/19 04:16:14;;;;;;;7.27;6.57;;;9.20;99.90;;;;;;5416449;26;20219;-60
2024/04/19 04:18:40;;;;;;;5.87;5.37;;;9.30;99.90;;;;;;5431682;26;20465;-60
2024/04/19 04:21:06;;;;;;;7.60;7.10;;;9.40;99.90;;;;;;5420498;26;20645;-61
2024/04/19 04:23:32;;;;;;;6.00;5.50;;;9.50;99.90;;;;;;5453051;26;20539;-60
2024/04/19 04:25:58;;;;;;;4.80;4.40;;;9.40;99.90;;;;;;5452382;26;20247;-69
2024/04/19 04:28:24;;;;;;;5.60;5.20;;;9.40;99.90;;;;;;5420622;26;20500;-60
2024/04/19 04:30:50;;;;;;;7.73;5.30;;;9.40;99.90;;;;;;5451699;26;20429;-60
2024/04/19 04:33:16;;;;;;;6.60;6.10;;;9.50;99.90;;;;;;5451887;26;20447;-61
2024/04/19 04:35:44;;;;;;;6.10;5.60;;;9.50;99.90;;;;;;5452680;26;20439;-61
2024/04/19 04:38:10;;;;;;;5.37;4.97;;;9.50;99.90;;;;;;5452097;26;20432;-61
2024/04/19 04:40:36;;;;;;;5.13;4.70;;;9.50;99.90;;;;;;5452582;26;20477;-60
2024/04/19 04:43:03;;;;;;;3.60;3.30;;;9.50;99.90;;;;;;5451779;26;20778;-61
2024/04/19 04:45:29;;;;;;;2.97;2.77;;;9.60;99.90;;;;;;5452663;26;20495;-60
2024/04/19 04:47:55;;;;;;;5.57;5.07;;;9.50;99.90;;;;;;5451825;26;20549;-60
2024/04/19 04:50:23;;;;;;;5.00;4.53;;;9.40;99.90;;;;;;5451698;26;20434;-60
2024/04/19 04:52:50;;;;;;;4.47;4.17;;;9.30;99.90;;;;;;5452189;26;20487;-60
2024/04/19 04:55:16;;;;;;;7.00;6.67;;;9.30;99.90;;;;;;5451549;26;20440;-60
2024/04/19 04:57:42;;;;;;;4.13;3.83;;;9.30;99.90;;;;;;5452218;26;20432;-60
2024/04/19 05:00:08;;;;;;;5.57;5.27;;;9.30;99.90;;;;;;5450133;26;20306;-61
2024/04/19 05:02:34;;;;;;;5.23;4.83;;;9.30;99.90;;;;;;5452015;26;20731;-61
2024/04/19 05:05:00;;;;;;;3.47;3.27;;;9.40;99.90;;;;;;5451288;26;20507;-70
2024/04/19 05:07:28;;;;;;;4.40;4.10;;;9.40;99.90;;;;;;5452151;26;20431;-61
2024/04/19 05:09:54;;;;;;;3.80;3.50;;;9.40;99.90;;;;;;5451912;26;20226;-61
2024/04/19 05:12:20;;;;;;;4.60;4.30;;;9.40;99.90;;;;;;5451872;26;20544;-61
2024/04/19 05:14:46;;;;;;;4.60;4.40;;;9.50;99.90;;;;;;5455711;26;20445;-61
2024/04/19 05:17:11;;;;;;;5.30;4.80;;;9.50;99.90;;;;;;5454701;26;20332;-61
2024/04/19 05:19:37;;;;;;;3.07;2.90;;;9.40;99.90;;;;;;5422921;26;20235;-61
2024/04/19 05:22:03;;;;;;;3.87;3.40;;;9.40;99.90;;;;;;5454118;26;20703;-61
2024/04/19 05:24:29;;;;;;;2.30;2.20;;;9.30;99.90;;;;;;5455052;26;20343;-61
2024/04/19 05:26:57;;;;;;;3.93;3.77;;;9.30;99.90;;;;;;5454914;26;20307;-61
2024/04/19 05:29:26;;;;;;;4.00;3.50;;;9.40;99.90;;;;;;5454053;26;20327;-61
2024/04/19 05:31:54;;;;;;;3.90;3.70;;;9.40;99.90;;;;;;5455288;26;20444;-61
2024/04/19 05:34:21;;;;;;;5.27;4.87;;;9.40;99.90;;;;;;5451744;26;20485;-61
2024/04/19 05:36:46;;;;;;;4.00;3.80;;;9.40;99.90;;;;;;5453757;26;20444;-61
2024/04/19 05:39:12;;;;;;;2.80;2.70;;;9.50;99.90;;;;;;5453483;26;20487;-61
2024/04/19 05:41:39;;;;;;;3.47;3.27;;;9.50;99.90;;;;;;5454071;26;20622;-61
2024/04/19 05:44:05;;;;;;;3.53;3.33;;;9.40;99.90;;;;;;5452933;26;20819;-61
2024/04/19 05:46:31;;;;;;;3.17;3.07;;;9.40;99.90;;;;;;5454405;26;20563;-62
2024/04/19 05:48:57;;;;;;;4.73;4.47;;;9.30;99.90;;;;;;5452714;26;20511;-63
2024/04/19 05:51:23;;;;;;;4.90;4.70;;;9.20;99.90;;;;;;5453398;26;20464;-62
2024/04/19 05:53:49;;;;;;;4.13;3.83;;;9.20;99.90;;;;;;5454137;26;20461;-69
2024/04/19 05:56:15;;;;;;;3.60;3.40;;;9.20;99.90;;;;;;5421978;26;20281;-63
2024/04/19 05:58:43;;;;;;;4.03;3.50;;;9.10;99.90;;;;;;5453637;26;20436;-63
2024/04/19 06:01:09;;;;;;;3.70;3.40;;;9.20;99.90;;;;;;5452003;26;20234;-62
2024/04/19 06:03:34;;;;;;;3.60;3.50;;;9.20;99.90;;;;;;5453309;26;20435;-61
2024/04/19 06:06:00;;;;;;;3.80;3.60;;;9.20;99.90;;;;;;5422189;26;20544;-61
2024/04/19 06:08:26;;;;;;;4.33;4.03;;;9.20;99.90;;;;;;5422198;26;20611;-61
2024/04/19 06:10:52;;;;;;;3.80;3.50;;;9.30;99.90;;;;;;5454540;26;20283;-61
2024/04/19 06:13:17;;;;;;;3.07;2.97;;;9.30;99.90;;;;;;5453627;26;20271;-61
2024/04/19 06:15:43;;;;;;;3.70;3.50;;;9.30;99.90;;;;;;5454379;26;20229;-61
2024/04/19 06:18:09;;;;;;;3.07;2.97;;;9.20;99.90;;;;;;5453772;26;20238;-61
2024/04/19 06:20:36;;;;;;;3.73;3.60;;;9.30;99.90;;;;;;5454635;26;20241;-61
2024/04/19 06:23:03;;;;;;;3.47;3.27;;;9.30;99.90;;;;;;5453830;26;20634;-61
2024/04/19 06:25:29;;;;;;;4.00;3.80;;;9.40;99.90;;;;;;5453902;26;20496;-61
2024/04/19 06:27:54;;;;;;;3.17;3.07;;;9.30;99.90;;;;;;5422695;26;20440;-61
2024/04/19 06:30:20;;;;;;;3.30;3.20;;;9.40;99.90;;;;;;5452714;26;20222;-61
2024/04/19 06:32:46;;;;;;;3.70;3.50;;;9.40;99.90;;;;;;5454066;26;20237;-61
2024/04/19 06:35:15;;;;;;;3.87;3.67;;;9.40;99.90;;;;;;5453585;26;20348;-61
2024/04/19 06:37:40;;;;;;;2.83;2.73;;;9.50;99.90;;;;;;5454063;26;20239;-61
2024/04/19 06:40:07;;;;;;;3.80;3.70;;;9.50;99.90;;;;;;5453621;26;20893;-62
2024/04/19 06:42:33;;;;;;;3.60;3.30;;;9.50;99.90;;;;;;5453521;26;20568;-61
2024/04/19 06:44:59;;;;;;;3.40;3.30;;;9.60;99.90;;;;;;5454268;26;20448;-61
2024/04/19 06:47:25;;;;;;;3.60;3.50;;;9.60;99.90;;;;;;5452332;26;20540;-61
2024/04/19 06:49:51;;;;;;;4.87;4.57;;;9.60;99.90;;;;;;5454135;26;20239;-61
2024/04/19 06:52:16;;;;;;;3.10;3.00;;;9.60;99.90;;;;;;5452272;26;20272;-62
2024/04/19 06:54:42;;;;;;;3.87;3.57;;;9.60;99.90;;;;;;5452757;26;20714;-61
2024/04/19 06:57:08;;;;;;;3.03;2.93;;;9.60;99.90;;;;;;5453293;26;20272;-62
2024/04/19 06:59:33;;;;;;;3.40;3.30;;;9.60;99.90;;;;;;5453747;26;20230;-61
2024/04/19 07:01:59;;;;;;;2.90;2.80;;;9.60;99.90;;;;;;5453565;26;20749;-61
2024/04/19 07:04:25;;;;;;;4.20;4.00;;;9.60;99.90;;;;;;5452869;26;20233;-62
2024/04/19 07:06:51;;;;;;;4.00;3.80;;;9.60;99.90;;;;;;5453962;26;20227;-61
2024/04/19 07:09:16;;;;;;;2.60;2.50;;;9.60;99.90;;;;;;5452968;26;20442;-62
2024/04/19 07:11:45;;;;;;;3.70;3.53;;;9.70;99.90;;;;;;5453602;26;20293;-62
2024/04/19 07:14:10;;;;;;;3.20;3.00;;;9.60;99.90;;;;;;5452958;26;20268;-67
2024/04/19 07:16:36;;;;;;;3.00;2.90;;;9.70;99.90;;;;;;5452734;26;20450;-61
2024/04/19 07:19:02;;;;;;;3.10;3.00;;;9.70;99.90;;;;;;5421388;26;20839;-61
2024/04/19 07:21:28;;;;;;;3.00;2.90;;;9.70;99.90;;;;;;5441893;26;20480;-62
2024/04/19 07:23:53;;;;;;;3.10;3.00;;;9.70;99.90;;;;;;5453165;26;20227;-61
2024/04/19 07:26:19;;;;;;;2.43;2.40;;;9.70;99.90;;;;;;5452763;26;20250;-63
2024/04/19 07:28:44;;;;;;;4.83;4.73;;;9.80;99.90;;;;;;5453729;26;20565;-61
2024/04/19 07:31:11;;;;;;;3.20;3.10;;;9.80;99.90;;;;;;5452777;26;20301;-62
2024/04/19 07:33:36;;;;;;;3.63;3.53;;;9.80;99.90;;;;;;5453921;26;20217;-61
2024/04/19 07:36:02;;;;;;;2.43;2.33;;;9.70;99.90;;;;;;5452297;26;20561;-61
2024/04/19 07:38:28;;;;;;;5.50;5.30;;;9.70;99.90;;;;;;5452678;26;20229;-61
2024/04/19 07:40:54;;;;;;;2.87;2.87;;;9.70;99.90;;;;;;5421902;26;21040;-61
2024/04/19 07:43:20;;;;;;;2.67;2.57;;;9.70;99.90;;;;;;5452088;26;20739;-61
2024/04/19 07:45:46;;;;;;;2.80;2.70;;;9.70;99.90;;;;;;5453229;26;20222;-61
2024/04/19 07:48:11;;;;;;;3.27;3.17;;;9.70;99.90;;;;;;5452473;26;20457;-62
2024/04/19 07:50:37;;;;;;;3.20;3.10;;;9.80;99.90;;;;;;5452904;26;20761;-61
2024/04/19 07:53:03;;;;;;;3.00;2.90;;;9.80;99.90;;;;;;5453510;26;20261;-61
2024/04/19 07:55:29;;;;;;;3.10;2.90;;;9.90;99.90;;;;;;5452403;26;20342;-61
2024/04/19 07:57:54;;;;;;;3.30;3.20;;;9.90;99.90;;;;;;5453150;26;20276;-61
2024/04/19 08:00:22;;;;;;;3.30;3.20;;;9.90;99.90;;;;;;5452518;26;20316;-61
2024/04/19 08:02:48;;;;;;;3.20;3.10;;;9.90;99.90;;;;;;5421438;26;20272;-61
2024/04/19 08:05:14;;;;;;;3.53;3.30;;;9.90;99.90;;;;;;5452212;26;20439;-61
2024/04/19 08:07:39;;;;;;;4.50;4.30;;;10.00;99.90;;;;;;5452928;26;20575;-61
2024/04/19 08:10:06;;;;;;;4.03;3.83;;;10.10;99.90;;;;;;5452740;26;20440;-61
2024/04/19 08:12:32;;;;;;;2.73;2.63;;;10.00;99.90;;;;;;5452128;26;20288;-61
2024/04/19 08:14:58;;;;;;;2.80;2.70;;;10.00;99.90;;;;;;5452501;26;20462;-61
2024/04/19 08:17:23;;;;;;;4.00;3.80;;;10.00;99.90;;;;;;5451964;26;20994;-61
2024/04/19 08:19:49;;;;;;;3.93;3.73;;;10.10;99.90;;;;;;5420425;26;20351;-61
2024/04/19 08:22:15;;;;;;;3.63;3.43;;;10.10;99.90;;;;;;5385036;26;20238;-62
2024/04/19 08:24:41;;;;;;;5.67;5.37;;;10.10;99.90;;;;;;5416648;26;20449;-61
2024/04/19 08:27:08;;;;;;;5.83;5.43;;;10.20;99.90;;;;;;5416863;26;20559;-61
2024/04/19 08:29:33;;;;;;;3.47;3.27;;;10.20;99.90;;;;;;5385061;26;20947;-61
2024/04/19 08:31:59;;;;;;;4.70;4.50;;;10.30;99.90;;;;;;5416371;26;20463;-61
2024/04/19 08:34:25;;;;;;;3.90;3.70;;;10.30;99.90;;;;;;5416017;26;20436;-61
2024/04/19 08:36:51;;;;;;;3.80;3.60;;;10.40;99.90;;;;;;5416622;26;20327;-61
2024/04/19 08:39:16;;;;;;;4.80;4.50;;;10.40;99.90;;;;;;5415519;26;20299;-61
2024/04/19 08:41:47;;;;;;;3.97;3.77;;;10.50;99.90;;;;;;5416290;26;20289;-61
2024/04/19 08:44:13;;;;;;;4.07;3.77;;;10.50;99.90;;;;;;5416342;26;20284;-70
2024/04/19 08:46:40;;;;;;;4.97;4.67;;;10.50;99.90;;;;;;5416189;26;20462;-61
2024/04/19 08:49:08;;;;;;;5.43;5.13;;;10.60;99.90;;;;;;5416507;26;20448;-62
2024/04/19 08:51:37;;;;;;;5.43;5.03;;;10.60;99.90;;;;;;5415712;26;20451;-61
2024/04/19 08:54:04;;;;;;;5.37;5.07;;;10.80;99.90;;;;;;5416204;26;20968;-61
2024/04/19 08:56:30;;;;;;;5.70;5.30;;;10.70;99.90;;;;;;5415322;26;21052;-62
2024/04/19 08:58:57;;;;;;;6.30;5.90;;;10.80;99.90;;;;;;5416557;26;20497;-61
2024/04/19 09:01:23;;;;;;;7.40;6.77;;;10.80;99.90;;;;;;5415589;26;20291;-62
2024/04/19 09:03:49;;;;;;;7.27;6.67;;;10.90;99.90;;;;;;5415982;26;20497;-61
2024/04/19 09:06:15;;;;;;;7.87;7.27;;;10.90;99.90;;;;;;5415725;26;20496;-65
2024/04/19 09:08:41;;;;;;;7.53;7.03;;;10.90;99.90;;;;;;5384865;26;20243;-61
2024/04/19 09:11:15;;;;;;;6.97;6.47;;;11.00;99.90;;;;;;5415673;26;20281;-61
2024/04/19 09:13:42;;;;;;;7.00;6.40;;;11.00;99.90;;;;;;5416070;26;20515;-61
2024/04/19 09:16:08;;;;;;;6.77;6.27;;;11.00;99.90;;;;;;5416019;26;21060;-61
2024/04/19 09:18:34;;;;;;;7.23;6.53;;;11.00;99.90;;;;;;5414826;26;20476;-61
2024/04/19 09:21:00;;;;;;;7.20;6.70;;;11.00;99.90;;;;;;5415937;26;20563;-61
2024/04/19 09:23:26;;;;;;;7.17;6.67;;;11.10;99.90;;;;;;5414983;26;20231;-63
2024/04/19 09:25:53;;;;;;;8.20;7.40;;;11.10;99.90;;;;;;5415937;26;20283;-61
2024/04/19 09:28:19;;;;;;;8.83;8.10;;;11.10;99.90;;;;;;5414903;26;20270;-62
2024/04/19 09:30:45;;;;;;;6.90;6.30;;;11.20;99.90;;;;;;5415711;26;20502;-61
2024/04/19 09:33:17;;;;;;;7.00;6.50;;;11.10;99.90;;;;;;5384115;26;20441;-62
2024/04/19 09:35:43;;;;;;;5.93;5.53;;;11.20;99.90;;;;;;5415758;26;21066;-61
2024/04/19 09:38:09;;;;;;;6.20;5.80;;;11.10;99.90;;;;;;5415404;26;20453;-61
2024/04/19 09:40:36;;;;;;;6.07;5.67;;;11.20;99.90;;;;;;5414851;26;20784;-61
2024/04/19 09:43:06;;;;;;;5.50;5.20;;;11.20;99.90;;;;;;5415420;26;20505;-61
2024/04/19 09:45:47;;;;;;;6.10;5.70;;;11.20;99.90;;;;;;5383283;26;20437;-62
2024/04/19 09:48:17;;;;;;;6.00;5.70;;;11.20;99.90;;;;;;5380400;26;20442;-61
2024/04/19 09:50:47;;;;;;;5.00;4.70;;;11.20;99.90;;;;;;5401783;26;20505;-61
2024/04/19 09:53:17;;;;;;;5.90;5.60;;;11.20;99.90;;;;;;5415242;26;20520;-61
2024/04/19 09:56:18;;;;;;;4.77;4.47;;;11.20;99.90;;;;;;5415592;26;20453;-61
2024/04/19 09:58:45;;;;;;;3.93;3.73;;;11.10;99.90;;;;;;5347059;26;20450;-61
2024/04/19 10:01:11;;;;;;;4.30;4.00;;;11.10;99.90;;;;;;5409432;26;20443;-61
2024/04/19 10:03:37;;;;;;;3.53;3.43;;;11.00;99.90;;;;;;5417933;26;20441;-63
2024/04/19 10:06:05;;;;;;;3.50;3.30;;;11.00;99.90;;;;;;5383634;26;20851;-61
2024/04/19 10:08:31;;;;;;;3.83;3.57;;;10.90;99.90;;;;;;5411185;26;20442;-61
2024/04/19 10:10:58;;;;;;;4.17;3.87;;;10.90;99.90;;;;;;5387007;26;20512;-62
2024/04/19 10:13:30;;;;;;;3.20;3.10;;;11.00;99.90;;;;;;5418221;26;20766;-62
2024/04/19 10:15:59;;;;;;;4.17;3.77;;;11.00;99.90;;;;;;5418702;26;20559;-61
2024/04/19 10:18:26;;;;;;;3.80;3.70;;;11.00;99.90;;;;;;5429233;26;20905;-61
2024/04/19 10:20:52;;;;;;;2.93;2.60;;;11.00;99.90;;;;;;5454757;26;20455;-61
2024/04/19 10:23:18;;;;;;;4.10;4.00;;;11.00;99.90;;;;;;5454499;26;20857;-61
2024/04/19 10:25:47;;;;;;;3.30;3.20;;;11.10;99.90;;;;;;5454195;26;20501;-61
2024/04/19 10:28:15;;;;;;;4.10;3.90;;;11.10;99.90;;;;;;5422594;26;20500;-61
2024/04/19 10:30:42;;;;;;;3.43;3.33;;;11.10;99.90;;;;;;5453791;26;20997;-61
2024/04/19 10:33:11;;;;;;;4.30;3.73;;;11.20;99.90;;;;;;5454396;26;20894;-61
2024/04/19 10:35:46;;;;;;;3.67;3.47;;;11.30;99.90;;;;;;5453681;26;20495;-61
2024/04/19 10:38:12;;;;;;;4.30;4.10;;;11.30;99.90;;;;;;5454350;26;20443;-61
2024/04/19 10:40:38;;;;;;;4.17;3.77;;;11.40;99.90;;;;;;5453469;26;20441;-61
2024/04/19 10:43:06;;;;;;;4.40;4.20;;;11.60;99.90;;;;;;5454124;26;20496;-61
2024/04/19 10:45:32;;;;;;;4.70;4.40;;;11.70;99.90;;;;;;5453132;26;20467;-62
2024/04/19 10:48:03;;;;;;;4.70;4.40;;;11.90;99.90;;;;;;5454286;26;20465;-61
2024/04/19 10:50:29;;;;;;;4.30;4.10;;;12.00;99.90;;;;;;5453282;26;20531;-61
2024/04/19 10:52:57;;;;;;;3.67;3.47;;;12.00;99.90;;;;;;5454124;26;20432;-61
2024/04/19 10:55:23;;;;;;;4.90;4.50;;;12.00;99.90;;;;;;5453317;26;20515;-61
2024/04/19 10:57:49;;;;;;;5.90;5.40;;;12.00;99.90;;;;;;5453745;26;20449;-61
2024/04/19 11:00:15;;;;;;;4.77;4.57;;;12.10;99.90;;;;;;5454086;26;21041;-61
2024/04/19 11:02:41;;;;;;;5.40;5.00;;;12.10;99.90;;;;;;5452939;26;20753;-61
2024/04/19 11:05:09;;;;;;;5.13;4.83;;;12.10;99.90;;;;;;5453803;26;20508;-61
2024/04/19 11:07:35;;;;;;;4.50;4.20;;;12.10;99.90;;;;;;5421532;26;21043;-61
2024/04/19 11:10:01;;;;;;;5.53;5.33;;;12.10;99.90;;;;;;5452283;26;21001;-61
2024/04/19 11:12:28;;;;;;;4.83;4.53;;;12.10;99.90;;;;;;5421245;26;20540;-61
2024/04/19 11:14:54;;;;;;;4.50;4.20;;;12.10;99.90;;;;;;5453963;26;20503;-61
2024/04/19 11:17:20;;;;;;;3.43;3.30;;;12.10;99.90;;;;;;5453497;26;20466;-61
2024/04/19 11:19:47;;;;;;;3.33;3.23;;;12.00;99.90;;;;;;5421412;26;20286;-61
2024/04/19 11:22:13;;;;;;;4.80;4.30;;;12.00;99.90;;;;;;5417899;26;20294;-62
2024/04/19 11:24:39;;;;;;;4.50;4.20;;;12.00;99.90;;;;;;5416887;26;20434;-61
2024/04/19 11:27:05;;;;;;;4.20;4.00;;;12.00;99.90;;;;;;5417302;26;20498;-61
2024/04/19 11:29:32;;;;;;;3.20;2.93;;;11.90;99.90;;;;;;5417264;26;20436;-61
2024/04/19 11:32:05;;;;;;;3.10;2.80;;;11.80;99.90;;;;;;5417444;26;20529;-61
2024/04/19 11:34:32;;;;;;;2.50;2.40;;;11.70;99.90;;;;;;5416824;26;20491;-62
2024/04/19 11:37:04;;;;;;;2.60;2.40;;;11.70;99.90;;;;;;5417472;26;20504;-61
2024/04/19 11:39:31;;;;;;;2.30;2.30;;;11.60;99.90;;;;;;5417521;26;20448;-62
2024/04/19 11:41:57;;;;;;;2.27;2.17;;;11.60;99.90;;;;;;5417233;26;20468;-61
2024/04/19 11:44:23;;;;;;;2.67;2.57;;;11.60;99.90;;;;;;5417072;26;20498;-62
2024/04/19 11:46:49;;;;;;;1.70;1.70;;;11.70;99.90;;;;;;5417418;26;20766;-61
2024/04/19 11:49:16;;;;;;;2.80;2.60;;;11.90;99.90;;;;;;5403449;26;20546;-61
2024/04/19 11:51:42;;;;;;;1.83;1.83;;;12.10;99.90;;;;;;5416376;26;20659;-62
2024/04/19 11:54:09;;;;;;;3.20;3.10;;;12.30;99.90;;;;;;5417295;26;20443;-62
2024/04/19 11:56:34;;;;;;;1.80;1.77;;;12.40;99.90;;;;;;5416566;26;20483;-61
2024/04/19 11:59:01;;;;;;;1.93;1.83;;;12.70;99.90;;;;;;5417105;26;20438;-61
2024/04/19 12:01:27;;;;;;;2.10;2.00;;;12.80;99.90;;;;;;5416377;26;20234;-62
2024/04/19 12:03:53;;;;;;;2.60;2.50;;;13.10;99.90;;;;;;5416954;26;20566;-61
2024/04/19 12:06:21;;;;;;;6.27;4.90;;;13.20;99.90;;;;;;5416326;26;20444;-61
2024/04/19 12:08:50;;;;;;;2.63;2.53;;;13.40;99.90;;;;;;5415479;26;20454;-61
2024/04/19 12:11:16;;;;;;;2.80;2.70;;;13.60;99.90;;;;;;5416642;26;20495;-62
2024/04/19 12:13:48;;;;;;;2.30;2.20;;;13.80;99.90;;;;;;5416068;26;20526;-62
2024/04/19 12:16:14;;;;;;;2.60;2.40;;;13.90;99.90;;;;;;5416720;26;20992;-61
2024/04/19 12:18:40;;;;;;;2.80;1.80;;;14.00;99.90;;;;;;5415890;26;20525;-61
2024/04/19 12:21:06;;;;;;;2.50;2.30;;;14.00;99.90;;;;;;5416064;26;20437;-61
2024/04/19 12:23:31;;;;;;;2.80;2.70;;;14.00;99.90;;;;;;5415969;26;20244;-61
2024/04/19 12:25:57;;;;;;;2.47;2.37;;;14.00;99.90;;;;;;5385228;26;20239;-61
2024/04/19 12:28:24;;;;;;;2.60;2.50;;;13.90;99.90;;;;;;5416866;26;20258;-61
2024/04/19 12:30:54;;;;;;;2.57;2.47;;;13.80;99.90;;;;;;5415944;26;20226;-61
2024/04/19 12:33:20;;;;;;;2.60;2.50;;;13.70;99.90;;;;;;5416498;26;20461;-62
2024/04/19 12:35:46;;;;;;;2.30;2.20;;;13.70;99.90;;;;;;5416080;26;20972;-62
2024/04/19 12:38:12;;;;;;;2.50;2.40;;;13.50;99.90;;;;;;5416464;26;20445;-62
2024/04/19 12:40:39;;;;;;;2.60;2.50;;;13.40;99.90;;;;;;5415718;26;20563;-62
2024/04/19 12:43:06;;;;;;;3.20;3.00;;;13.40;99.90;;;;;;5385153;26;20458;-62
2024/04/19 12:45:32;;;;;;;3.23;3.03;;;13.30;99.90;;;;;;5415851;26;21066;-62
2024/04/19 12:48:07;;;;;;;3.10;2.83;;;13.10;99.90;;;;;;5416489;26;20470;-61
2024/04/19 12:50:34;;;;;;;2.90;2.70;;;13.10;99.90;;;;;;5415049;26;20495;-62
2024/04/19 12:53:03;;;;;;;2.40;2.30;;;13.00;99.90;;;;;;5416149;26;20498;-62